createdAt,value
2022-10-28T00:02:33.383Z,101133.13
2022-10-28T00:09:21.394Z,101132.31
2022-10-28T00:16:14.162Z,101125.81
2022-10-28T00:22:59.561Z,101127.44
2022-10-28T00:29:47.550Z,101123.41
2022-10-28T00:36:35.275Z,101136.63
2022-10-28T00:43:35.599Z,101093.53
2022-10-28T00:50:46.716Z,101130.81
2022-10-28T00:57:37.806Z,101125.44
2022-10-28T01:04:24.605Z,101118.75
2022-10-28T01:11:30.339Z,101100.34
2022-10-28T01:18:28.649Z,101088.28
2022-10-28T01:25:51.368Z,101120.81
2022-10-28T01:32:54.293Z,101124.09
2022-10-28T01:39:51.089Z,101116.56
2022-10-28T01:46:42.114Z,101094.66
2022-10-28T01:53:36.742Z,101123.72
2022-10-28T02:00:22.487Z,101104.97
2022-10-28T02:07:08.506Z,101105.56
2022-10-28T02:14:09.057Z,101113.41
2022-10-28T02:20:58.785Z,101102.97
2022-10-28T02:27:52.112Z,101104.94
2022-10-28T02:34:47.061Z,101086.31
2022-10-28T02:41:39.469Z,101011.81
2022-10-28T03:02:15.952Z,101053.09
2022-10-28T03:09:02.141Z,101045.25
2022-10-28T03:15:47.449Z,101027.66
2022-10-28T03:22:35.453Z,101012.66
2022-10-28T03:29:21.130Z,101049.19
2022-10-28T03:36:07.873Z,101011.16
2022-10-28T03:42:56.269Z,101016.19
2022-10-28T03:49:41.763Z,101012.41
2022-10-28T03:56:27.236Z,101015.47
2022-10-28T04:03:15.457Z,101035.47
2022-10-28T04:10:00.956Z,101065.53
2022-10-28T04:16:46.901Z,101059.97
2022-10-28T04:23:34.877Z,101052.97
2022-10-28T04:30:22.369Z,101062.59
2022-10-28T04:37:07.738Z,101061.94
2022-10-28T04:43:56.378Z,101049.53
2022-10-28T04:50:42.640Z,101054.75
2022-10-28T04:57:30.632Z,101056.06
2022-10-28T05:04:18.618Z,101064.88
2022-10-28T05:11:04.272Z,101050.81
2022-10-28T05:17:51.607Z,101018.19
2022-10-28T05:24:39.828Z,101024.34
2022-10-28T05:31:25.230Z,101031.72
2022-10-28T05:38:10.862Z,100998.47
2022-10-28T05:44:58.825Z,100995.47
2022-10-28T05:51:44.280Z,100956.63
2022-10-28T05:58:29.778Z,101024.47
2022-10-28T06:05:18.137Z,101000.91
2022-10-28T06:12:02.205Z,100997.25
2022-10-28T06:18:47.659Z,101013.25
2022-10-28T06:25:35.765Z,101029.78
2022-10-28T06:32:21.126Z,101028.28
2022-10-28T06:39:07.335Z,101015.41
2022-10-28T06:45:55.989Z,100998.81
2022-10-28T06:52:42.910Z,101028.81
2022-10-28T06:59:28.343Z,101019.88
2022-10-28T07:06:16.483Z,100994.44
2022-10-28T07:13:02.204Z,101029.56
2022-10-28T07:19:47.534Z,101018.38
2022-10-28T07:26:35.472Z,101046.13
2022-10-28T07:33:20.902Z,101062.06
2022-10-28T07:40:06.629Z,101076.84
2022-10-28T07:46:57.950Z,101070.59
2022-10-28T07:53:44.728Z,101072.69
2022-10-28T08:00:30.098Z,101074.44
2022-10-28T08:07:18.590Z,101083.88
2022-10-28T08:14:05.408Z,101073.06
2022-10-28T08:20:51.053Z,101087.53
2022-10-28T08:27:40.563Z,101077.16
2022-10-28T08:34:29.810Z,101066.50
2022-10-28T08:41:33.801Z,101077.66
2022-10-28T08:48:31.387Z,101060.41
2022-10-28T08:55:21.833Z,101060.31
2022-10-28T09:02:21.755Z,101024.91
2022-10-28T09:09:12.224Z,101062.06
2022-10-28T09:16:09.333Z,101069.03
2022-10-28T09:23:00.907Z,101071.84
2022-10-28T09:30:05.029Z,101081.59
2022-10-28T09:36:56.402Z,101062.41
2022-10-28T09:43:49.026Z,101079.88
2022-10-28T09:50:37.296Z,101051.53
2022-10-28T09:57:23.414Z,100991.38
2022-10-28T10:04:21.459Z,101034.34
2022-10-28T10:11:19.498Z,101071.31
2022-10-28T10:18:08.332Z,101074.19
2022-10-28T10:24:53.695Z,101074.75
2022-10-28T10:31:41.692Z,101066.91
2022-10-28T10:38:27.400Z,101032.59
2022-10-28T10:45:27.583Z,101047.78
2022-10-28T10:52:26.214Z,100974.25
2022-10-28T10:59:25.447Z,101013.59
2022-10-28T11:06:30.011Z,101017.34
2022-10-28T11:13:29.251Z,101025.38
2022-10-28T11:20:29.932Z,101001.41
2022-10-28T11:27:29.641Z,100989.22
2022-10-28T11:34:46.717Z,100998.84
2022-10-28T11:41:45.140Z,100993.22
2022-10-28T11:48:49.419Z,100986.31
2022-10-28T11:55:44.308Z,100971.72
2022-10-28T12:02:53.860Z,100975.09
2022-10-28T12:10:00.098Z,100956.50
2022-10-28T12:16:58.528Z,100941.09
2022-10-28T12:23:46.217Z,100935.66
2022-10-28T12:30:34.393Z,100940.09
2022-10-28T12:37:26.919Z,100921.38
2022-10-28T12:44:15.865Z,100940.56
2022-10-28T12:51:12.262Z,100936.38
2022-10-28T12:58:07.093Z,100927.56
2022-10-28T13:04:53.349Z,100914.69
2022-10-28T13:12:17.539Z,100907.09
2022-10-28T13:19:32.037Z,100913.06
2022-10-28T13:26:27.205Z,100926.78
2022-10-28T13:33:22.671Z,100921.97
2022-10-28T13:40:27.780Z,100902.53
2022-10-28T13:47:33.091Z,100917.84
2022-10-28T13:54:30.849Z,100915.69
2022-10-28T14:02:02.293Z,100902.03
2022-10-28T14:09:00.809Z,100917.44
2022-10-28T14:15:48.242Z,100916.63
2022-10-28T14:22:39.505Z,100910.59
2022-10-28T14:29:32.466Z,100931.63
2022-10-28T14:36:33.104Z,100926.25
2022-10-28T14:43:49.779Z,100934.81
2022-10-28T14:50:42.287Z,100925.84
2022-10-28T14:57:34.184Z,100928.97
2022-10-28T15:04:24.328Z,100916.38
2022-10-28T15:11:09.961Z,100929.69
2022-10-28T15:17:56.555Z,100908.47
2022-10-28T15:24:47.253Z,100924.63
2022-10-28T15:31:32.853Z,100931.53
2022-10-28T15:38:41.008Z,100929.31
2022-10-28T15:45:32.248Z,100908.75
2022-10-28T15:52:43.240Z,100933.03
2022-10-28T15:59:29.872Z,100935.88
2022-10-28T16:06:31.734Z,100940.31
2022-10-28T16:13:27.361Z,100947.31
2022-10-28T16:20:18.988Z,100949.56
2022-10-28T16:27:24.652Z,100953.72
2022-10-28T16:34:11.820Z,100970.41
2022-10-28T16:40:58.548Z,100967.09
2022-10-28T16:47:46.570Z,100980.97
2022-10-28T16:54:31.908Z,100956.63
2022-10-28T17:01:20.950Z,100984.53
2022-10-28T17:08:13.046Z,100973.94
2022-10-28T17:14:58.514Z,100963.78
2022-10-28T17:21:45.460Z,100969.97
2022-10-28T17:28:33.401Z,100972.03
2022-10-28T17:35:19.068Z,100986.88
2022-10-28T17:42:06.491Z,100996.16
2022-10-28T17:48:54.507Z,101015.31
2022-10-28T17:55:42.159Z,101020.91
2022-10-28T18:02:27.702Z,101013.25
2022-10-28T18:09:17.028Z,101027.25
2022-10-28T18:16:08.007Z,101017.31
2022-10-28T18:22:53.528Z,101036.22
2022-10-28T18:29:41.653Z,101019.41
2022-10-28T18:36:28.939Z,101031.78
2022-10-28T18:43:14.684Z,101037.69
2022-10-28T18:50:02.848Z,101041.94
2022-10-28T18:56:49.190Z,101044.72
2022-10-28T19:03:36.058Z,101037.75
2022-10-28T19:10:24.042Z,101034.97
2022-10-28T19:17:09.479Z,101027.16
2022-10-28T19:23:55.264Z,101034.41
2022-10-28T19:30:43.263Z,101029.69
2022-10-28T19:37:28.625Z,101033.56
2022-10-28T19:44:13.997Z,101041.31
2022-10-28T19:51:02.140Z,101026.34
2022-10-28T19:57:50.318Z,101065.53
2022-10-28T20:04:38.225Z,101056.28
2022-10-28T20:11:29.491Z,101056.47
2022-10-28T20:18:14.920Z,101065.94
2022-10-28T20:25:02.275Z,101074.03
2022-10-28T20:31:50.923Z,101068.66
2022-10-28T20:38:36.633Z,101077.53
2022-10-28T20:45:22.038Z,101088.41
2022-10-28T20:52:10.092Z,101078.16
2022-10-28T20:58:57.803Z,101077.09
2022-10-28T21:05:44.442Z,101076.16
2022-10-28T21:12:32.380Z,101098.44
2022-10-28T21:19:17.819Z,101109.00
2022-10-28T21:26:06.147Z,101102.47
2022-10-28T21:32:54.641Z,101115.66
2022-10-28T21:39:40.219Z,101123.50
2022-10-28T21:46:26.911Z,101108.38
2022-10-28T21:53:14.861Z,101105.94
2022-10-28T22:00:00.342Z,101112.53
2022-10-28T22:13:36.222Z,101135.84
2022-10-28T22:20:21.769Z,101125.84
2022-10-28T22:27:07.309Z,101143.25
2022-10-28T22:33:57.660Z,101104.63
2022-10-28T22:40:43.041Z,101145.84
2022-10-28T22:47:28.405Z,101140.16
2022-10-28T22:54:16.392Z,101120.53
2022-10-28T23:01:10.242Z,101095.81
2022-10-28T23:07:59.423Z,101102.56
2022-10-28T23:14:47.510Z,101109.75
2022-10-28T23:21:32.861Z,101102.00
2022-10-28T23:28:18.220Z,101098.22
2022-10-28T23:35:06.965Z,101074.19
2022-10-28T23:41:52.580Z,101098.63
2022-10-28T23:48:38.185Z,101107.81
2022-10-28T23:55:26.343Z,101106.91
